Time;durP1;ratioP1;P1;durP2;ratioP2;P2;SDS_P1;SDS_P2;PMS_P1;PMS_P2;Temp;Humidity;BMP_temperature;BMP_pressure;BME280_temperature;BME280_humidity;BME280_pressure;Samples;Min_cycle;Max_cycle;Signal;HPM_P1;HPM_P2
2022/07/12 00:02:07;;;;;;;4.40;3.07;;;12.90;52.20;;;;;;5034732;28;46431;-65
2022/07/12 00:04:33;;;;;;;5.50;2.60;;;12.80;52.20;;;;;;5030036;28;45872;-64
2022/07/12 00:06:58;;;;;;;4.47;2.50;;;12.70;52.10;;;;;;5031391;28;46570;-65
2022/07/12 00:09:24;;;;;;;5.23;3.30;;;12.70;52.20;;;;;;5032848;28;46890;-64
2022/07/12 00:11:49;;;;;;;4.10;2.70;;;12.60;52.10;;;;;;5030759;28;46378;-66
2022/07/12 00:14:15;;;;;;;4.27;2.80;;;12.60;52.00;;;;;;5032747;28;45814;-66
2022/07/12 00:16:41;;;;;;;7.70;3.07;;;12.50;52.10;;;;;;5029479;28;46728;-65
2022/07/12 00:19:07;;;;;;;4.30;2.80;;;12.50;52.10;;;;;;5033892;28;46583;-64
2022/07/12 00:21:32;;;;;;;4.77;2.90;;;12.50;52.00;;;;;;5033715;28;46407;-66
2022/07/12 00:23:58;;;;;;;5.57;3.20;;;12.50;52.00;;;;;;5027258;28;46457;-65
2022/07/12 00:26:24;;;;;;;4.53;3.03;;;12.50;52.10;;;;;;5030894;28;46486;-66
2022/07/12 00:28:50;;;;;;;5.23;3.93;;;12.50;52.00;;;;;;5028926;28;47123;-64
2022/07/12 00:31:15;;;;;;;7.07;3.70;;;12.50;51.90;;;;;;5033670;28;46364;-64
2022/07/12 00:33:41;;;;;;;5.87;3.70;;;12.50;51.80;;;;;;5032676;28;46474;-64
2022/07/12 00:36:07;;;;;;;5.43;3.40;;;12.60;51.80;;;;;;5033157;28;46586;-64
2022/07/12 00:38:33;;;;;;;7.07;4.10;;;12.60;52.00;;;;;;5031961;28;47034;-65
2022/07/12 00:40:58;;;;;;;6.77;4.00;;;12.50;52.00;;;;;;5034689;28;46382;-65
2022/07/12 00:43:24;;;;;;;5.53;4.20;;;12.50;52.10;;;;;;5031765;28;46437;-64
2022/07/12 00:45:50;;;;;;;6.77;4.20;;;12.50;52.20;;;;;;5031018;28;46381;-64
2022/07/12 00:48:17;;;;;;;6.70;4.23;;;12.50;52.20;;;;;;5030667;28;47064;-64
2022/07/12 00:50:44;;;;;;;8.10;4.00;;;12.60;52.30;;;;;;5030396;28;46421;-64
2022/07/12 00:53:10;;;;;;;10.20;3.60;;;12.60;52.20;;;;;;5031046;28;46380;-66
2022/07/12 00:55:36;;;;;;;4.50;3.40;;;12.60;52.50;;;;;;5030664;28;46467;-65
2022/07/12 00:58:01;;;;;;;5.80;3.10;;;12.50;52.60;;;;;;5027531;28;47936;-65
2022/07/12 01:00:29;;;;;;;5.03;2.43;;;12.50;52.80;;;;;;5043985;28;46390;-64
2022/07/12 01:03:00;;;;;;;9.03;2.47;;;12.40;52.90;;;;;;5031196;28;46560;-66
2022/07/12 01:05:27;;;;;;;4.90;2.73;;;12.30;52.80;;;;;;5028861;28;46389;-65
2022/07/12 01:07:54;;;;;;;6.73;2.80;;;12.20;53.10;;;;;;5030058;28;46402;-66
2022/07/12 01:10:20;;;;;;;6.93;2.77;;;12.10;53.10;;;;;;5029350;28;46506;-65
2022/07/12 01:12:46;;;;;;;5.00;2.73;;;12.00;53.30;;;;;;5031515;28;46414;-66
2022/07/12 01:15:12;;;;;;;4.47;3.03;;;12.00;53.30;;;;;;5032461;28;46367;-65
2022/07/12 01:17:39;;;;;;;3.83;2.47;;;11.90;53.40;;;;;;5026033;28;46611;-65
2022/07/12 01:20:08;;;;;;;5.60;3.17;;;11.90;53.30;;;;;;5027072;28;46337;-65
2022/07/12 01:22:40;;;;;;;5.03;2.23;;;11.80;53.30;;;;;;5026158;28;46476;-65
2022/07/12 01:25:06;;;;;;;6.70;3.20;;;11.80;53.30;;;;;;5024722;28;46690;-65
2022/07/12 01:27:32;;;;;;;3.73;2.77;;;11.80;53.30;;;;;;5028301;28;46551;-65
2022/07/12 01:29:58;;;;;;;5.90;3.33;;;11.80;53.30;;;;;;5029436;28;46359;-65
2022/07/12 01:32:24;;;;;;;8.67;3.30;;;11.80;53.00;;;;;;5030641;28;46491;-65
2022/07/12 01:35:00;;;;;;;6.30;3.00;;;11.70;52.90;;;;;;5029778;28;46320;-65
2022/07/12 01:37:32;;;;;;;4.30;2.70;;;11.70;53.20;;;;;;5028846;28;46168;-65
2022/07/12 01:40:00;;;;;;;8.23;3.07;;;11.60;53.10;;;;;;5028821;28;46346;-65
2022/07/12 01:42:27;;;;;;;5.70;3.20;;;11.60;53.20;;;;;;5030413;28;46502;-66
2022/07/12 01:44:53;;;;;;;5.07;3.43;;;11.60;53.20;;;;;;5033668;28;46413;-65
2022/07/12 01:47:20;;;;;;;5.03;3.10;;;11.50;53.00;;;;;;5028910;28;46399;-65
2022/07/12 01:49:46;;;;;;;4.80;3.00;;;11.50;53.40;;;;;;5028665;28;46460;-65
2022/07/12 01:52:13;;;;;;;9.00;3.77;;;11.40;52.90;;;;;;5030004;28;46216;-66
2022/07/12 01:54:39;;;;;;;10.37;3.23;;;11.40;53.00;;;;;;5031865;28;46660;-65
2022/07/12 01:57:05;;;;;;;6.70;3.60;;;11.40;52.90;;;;;;5035728;28;47041;-66
2022/07/12 01:59:31;;;;;;;7.60;3.63;;;11.40;52.90;;;;;;5033500;28;46521;-66
2022/07/12 02:01:57;;;;;;;4.90;3.60;;;11.40;52.90;;;;;;5032534;28;46395;-66
2022/07/12 02:04:23;;;;;;;5.90;3.67;;;11.40;53.00;;;;;;5031970;28;46477;-66
2022/07/12 02:06:49;;;;;;;7.03;3.77;;;11.40;52.90;;;;;;5036036;28;47228;-65
2022/07/12 02:09:16;;;;;;;10.63;3.90;;;11.40;52.90;;;;;;5035515;28;46409;-64
2022/07/12 02:11:42;;;;;;;6.90;4.13;;;11.40;53.00;;;;;;5035390;28;46501;-64
2022/07/12 02:14:09;;;;;;;5.47;3.37;;;11.40;52.90;;;;;;5034434;28;46398;-67
2022/07/12 02:16:34;;;;;;;5.60;3.73;;;11.40;52.90;;;;;;5031094;28;46469;-65
2022/07/12 02:19:00;;;;;;;4.97;3.43;;;11.40;52.90;;;;;;5030451;28;46366;-66
2022/07/12 02:21:26;;;;;;;5.47;3.20;;;11.40;52.90;;;;;;5032033;28;46414;-65
2022/07/12 02:23:52;;;;;;;5.27;3.47;;;11.40;53.10;;;;;;5029876;28;46837;-64
2022/07/12 02:26:18;;;;;;;5.10;2.83;;;11.40;53.40;;;;;;5033069;28;47295;-65
2022/07/12 02:28:43;;;;;;;4.70;3.50;;;11.40;53.60;;;;;;5029203;28;46453;-64
2022/07/12 02:31:09;;;;;;;4.57;3.00;;;11.40;53.80;;;;;;5035346;28;46432;-66
2022/07/12 02:33:35;;;;;;;7.00;3.27;;;11.40;53.80;;;;;;5030541;28;46424;-65
2022/07/12 02:36:01;;;;;;;7.83;3.00;;;11.20;54.00;;;;;;5033933;28;47115;-65
2022/07/12 02:38:27;;;;;;;4.23;2.60;;;11.10;53.90;;;;;;5045221;28;46615;-65
2022/07/12 02:40:53;;;;;;;6.23;3.23;;;11.10;54.20;;;;;;5032676;28;46363;-68
2022/07/12 02:43:23;;;;;;;4.30;2.53;;;11.00;54.10;;;;;;5033095;28;46378;-65
2022/07/12 02:45:50;;;;;;;5.90;3.03;;;11.00;54.10;;;;;;5029931;28;46440;-65
2022/07/12 02:48:15;;;;;;;5.57;3.47;;;10.90;54.10;;;;;;5030125;28;46374;-65
2022/07/12 02:50:41;;;;;;;6.33;3.10;;;10.90;54.10;;;;;;5027304;28;46549;-65
2022/07/12 02:53:08;;;;;;;4.87;2.90;;;10.90;53.90;;;;;;5033952;28;46417;-65
2022/07/12 02:55:34;;;;;;;4.40;2.60;;;10.80;53.80;;;;;;5027944;28;46457;-65
2022/07/12 02:58:00;;;;;;;4.63;3.10;;;10.80;53.90;;;;;;5031186;28;46448;-65
2022/07/12 03:00:26;;;;;;;6.00;2.40;;;10.70;54.00;;;;;;5034062;28;46418;-65
2022/07/12 03:02:52;;;;;;;3.87;2.83;;;10.60;54.20;;;;;;5029799;28;46637;-65
2022/07/12 03:05:18;;;;;;;5.70;2.83;;;10.50;54.20;;;;;;5032165;28;46362;-64
2022/07/12 03:07:44;;;;;;;4.13;2.70;;;10.50;54.30;;;;;;5030789;28;45881;-65
2022/07/12 03:10:10;;;;;;;6.67;3.17;;;10.50;54.30;;;;;;5032598;28;46331;-65
2022/07/12 03:12:36;;;;;;;4.00;2.90;;;10.50;54.20;;;;;;5033004;28;46438;-64
2022/07/12 03:15:03;;;;;;;13.10;3.27;;;10.60;54.10;;;;;;5027000;28;48244;-65
2022/07/12 03:17:28;;;;;;;5.57;3.00;;;10.50;53.90;;;;;;5031735;28;46434;-65
2022/07/12 03:19:54;;;;;;;4.00;2.70;;;10.50;53.90;;;;;;5034273;28;46379;-66
2022/07/12 03:22:19;;;;;;;5.50;2.67;;;10.50;54.00;;;;;;5032127;28;46532;-65
2022/07/12 03:24:45;;;;;;;4.30;2.80;;;10.50;54.10;;;;;;5033037;28;46905;-65
2022/07/12 03:27:11;;;;;;;10.30;2.83;;;10.50;54.10;;;;;;5032919;28;45918;-65
2022/07/12 03:29:37;;;;;;;3.80;2.30;;;10.60;54.00;;;;;;5030054;28;46438;-66
2022/07/12 03:32:03;;;;;;;4.90;3.23;;;10.60;53.90;;;;;;5032369;28;46403;-65
2022/07/12 03:34:29;;;;;;;5.13;3.00;;;10.60;53.90;;;;;;5031909;28;46546;-66
2022/07/12 03:36:55;;;;;;;6.40;3.07;;;10.70;53.80;;;;;;5030762;28;45880;-65
2022/07/12 03:39:21;;;;;;;6.90;3.20;;;10.80;53.70;;;;;;5030325;28;46367;-66
2022/07/12 03:41:46;;;;;;;12.77;3.80;;;10.80;53.40;;;;;;5031251;28;46321;-66
2022/07/12 03:44:12;;;;;;;5.63;3.93;;;10.90;53.20;;;;;;5032651;28;47072;-67
2022/07/12 03:46:37;;;;;;;7.50;3.40;;;11.00;52.90;;;;;;5031524;28;46418;-67
2022/07/12 03:49:03;;;;;;;7.93;3.10;;;11.10;52.70;;;;;;5028123;28;46319;-65
2022/07/12 03:51:29;;;;;;;5.77;2.93;;;11.20;52.90;;;;;;5031956;28;46625;-66
2022/07/12 03:53:54;;;;;;;5.20;2.90;;;11.20;53.00;;;;;;5031119;28;46390;-64
2022/07/12 03:59:04;;;;;;;6.90;3.07;;;11.20;52.80;;;;;;5031520;28;46462;-65
2022/07/12 04:01:30;;;;;;;9.90;2.83;;;11.20;52.70;;;;;;5029723;28;46487;-64
2022/07/12 04:03:56;;;;;;;11.07;2.60;;;11.30;52.80;;;;;;5033499;28;46622;-65
2022/07/12 04:06:22;;;;;;;12.67;3.33;;;11.30;52.80;;;;;;5027033;28;46410;-67
2022/07/12 04:08:47;;;;;;;7.70;2.70;;;11.30;52.80;;;;;;5034554;28;46473;-65
2022/07/12 04:11:13;;;;;;;9.33;3.50;;;11.30;52.80;;;;;;5029148;28;46465;-66
2022/07/12 04:13:39;;;;;;;8.57;2.83;;;11.40;52.90;;;;;;5033968;28;47090;-65
2022/07/12 04:16:05;;;;;;;10.33;3.17;;;11.40;52.90;;;;;;5027582;28;46281;-66
2022/07/12 04:18:31;;;;;;;7.00;2.80;;;11.50;53.00;;;;;;5032749;28;46648;-65
2022/07/12 04:20:57;;;;;;;13.40;4.30;;;11.60;53.10;;;;;;5031812;28;45901;-66
2022/07/12 04:23:22;;;;;;;5.93;2.80;;;11.70;53.20;;;;;;5033550;28;47185;-66
2022/07/12 04:25:48;;;;;;;5.77;2.17;;;11.80;52.70;;;;;;5031731;28;46409;-65
2022/07/12 04:28:13;;;;;;;8.03;2.60;;;11.80;52.60;;;;;;5029148;28;46633;-65
2022/07/12 04:30:39;;;;;;;7.40;3.40;;;11.90;52.20;;;;;;5032547;28;46343;-65
2022/07/12 04:33:05;;;;;;;8.07;2.83;;;12.00;52.10;;;;;;5028472;28;46369;-65
2022/07/12 04:35:31;;;;;;;6.70;2.30;;;12.30;51.80;;;;;;5031729;28;46443;-65
2022/07/12 04:37:57;;;;;;;9.50;2.90;;;12.30;51.70;;;;;;5033831;28;46401;-65
2022/07/12 04:40:22;;;;;;;12.20;3.10;;;12.40;51.40;;;;;;5030553;28;46393;-66
2022/07/12 04:42:48;;;;;;;12.03;2.60;;;12.60;51.40;;;;;;5032084;28;46518;-66
2022/07/12 04:45:13;;;;;;;9.87;2.90;;;12.80;51.20;;;;;;5030469;28;46016;-65
2022/07/12 04:47:39;;;;;;;9.30;3.50;;;12.90;50.80;;;;;;5031654;28;46349;-65
2022/07/12 04:50:07;;;;;;;9.93;2.60;;;13.30;50.20;;;;;;5029407;28;46397;-65
2022/07/12 04:52:34;;;;;;;11.93;3.60;;;13.80;49.00;;;;;;5032777;28;46414;-64
2022/07/12 04:55:00;;;;;;;8.47;3.80;;;14.60;48.00;;;;;;5031910;28;46358;-64
2022/07/12 04:57:26;;;;;;;9.20;2.73;;;15.30;47.00;;;;;;5031321;28;46427;-65
2022/07/12 04:59:52;;;;;;;8.77;2.53;;;15.30;46.60;;;;;;5031067;28;46551;-65
2022/07/12 05:02:18;;;;;;;19.33;2.80;;;15.60;46.50;;;;;;5030044;28;48070;-65
2022/07/12 05:04:44;;;;;;;8.60;2.77;;;16.30;45.90;;;;;;5032666;28;46387;-65
2022/07/12 05:07:09;;;;;;;6.33;3.17;;;16.70;44.60;;;;;;5030646;28;46458;-66
2022/07/12 05:09:35;;;;;;;6.30;2.97;;;16.90;44.80;;;;;;5035432;28;46528;-65
2022/07/12 05:12:00;;;;;;;6.67;2.43;;;17.30;44.10;;;;;;5029892;28;46640;-65
2022/07/12 05:14:26;;;;;;;11.60;2.87;;;18.20;42.70;;;;;;5029554;28;46339;-65
2022/07/12 05:16:52;;;;;;;12.13;3.50;;;19.30;39.90;;;;;;5031531;28;45888;-65
2022/07/12 05:19:18;;;;;;;8.57;3.00;;;20.50;37.40;;;;;;5040070;28;46381;-65
2022/07/12 05:21:44;;;;;;;9.50;2.47;;;21.90;34.70;;;;;;5031645;28;46445;-65
2022/07/12 05:24:10;;;;;;;11.13;2.93;;;23.40;31.10;;;;;;5025041;28;46521;-65
2022/07/12 05:26:36;;;;;;;6.90;2.40;;;24.60;28.80;;;;;;5039550;28;46457;-65
2022/07/12 05:29:02;;;;;;;14.80;3.07;;;25.50;26.80;;;;;;5034144;28;46473;-66
2022/07/12 05:31:28;;;;;;;5.20;2.80;;;26.00;26.20;;;;;;5034848;28;46711;-65
2022/07/12 05:33:54;;;;;;;6.50;2.53;;;26.50;24.10;;;;;;5035663;28;46355;-65
2022/07/12 05:36:20;;;;;;;8.50;2.83;;;26.90;22.20;;;;;;5033166;28;46457;-64
2022/07/12 05:38:46;;;;;;;8.10;2.87;;;27.50;22.00;;;;;;5032726;28;46746;-63
2022/07/12 05:41:12;;;;;;;13.30;3.10;;;27.90;21.40;;;;;;5034602;28;48041;-62
2022/07/12 05:43:38;;;;;;;9.20;3.53;;;28.20;20.80;;;;;;5033334;28;46387;-63
2022/07/12 05:46:04;;;;;;;7.47;3.30;;;28.80;19.30;;;;;;5032503;28;46374;-63
2022/07/12 05:48:30;;;;;;;7.03;2.90;;;29.40;17.60;;;;;;5031724;28;46470;-66
2022/07/12 05:53:21;;;;;;;11.63;3.70;;;30.00;16.70;;;;;;5031586;28;46702;-64
2022/07/12 05:53:41;;;;;;;5.43;3.30;;;30.50;15.40;;;;;;5029822;28;46498;-64
2022/07/12 05:56:06;;;;;;;7.73;3.33;;;30.90;14.50;;;;;;5032506;28;46429;-64
2022/07/12 05:58:32;;;;;;;4.90;3.47;;;31.20;13.70;;;;;;5031919;28;46358;-64
2022/07/12 06:00:58;;;;;;;7.57;3.73;;;30.00;16.00;;;;;;5030242;28;47208;-65
2022/07/12 06:03:23;;;;;;;9.80;3.20;;;28.20;20.20;;;;;;5036291;28;46827;-65
2022/07/12 06:05:49;;;;;;;4.70;3.40;;;26.60;24.00;;;;;;5032679;28;46506;-64
2022/07/12 06:08:14;;;;;;;4.97;3.63;;;25.80;26.40;;;;;;5032830;28;46581;-64
2022/07/12 06:10:40;;;;;;;6.20;4.00;;;25.20;26.50;;;;;;5030861;28;46397;-63
2022/07/12 06:13:06;;;;;;;4.40;3.30;;;24.40;27.90;;;;;;5031549;28;46398;-64
2022/07/12 06:15:32;;;;;;;6.50;3.60;;;23.70;28.10;;;;;;5034985;28;46700;-64
2022/07/12 06:17:58;;;;;;;5.90;3.60;;;23.20;28.70;;;;;;5030759;28;47027;-66
2022/07/12 06:20:24;;;;;;;10.07;3.77;;;22.40;29.10;;;;;;5030739;28;47053;-65
2022/07/12 06:22:49;;;;;;;7.47;3.80;;;21.60;30.10;;;;;;5029938;28;46465;-64
2022/07/12 06:25:15;;;;;;;4.50;3.07;;;21.50;30.80;;;;;;5035254;28;46423;-66
2022/07/12 06:27:41;;;;;;;3.60;2.60;;;21.30;30.50;;;;;;5030286;28;46414;-64
2022/07/12 06:30:07;;;;;;;3.73;2.60;;;21.10;30.20;;;;;;5036178;28;47251;-65
2022/07/12 06:32:33;;;;;;;5.40;2.73;;;20.90;30.00;;;;;;5030508;28;46437;-64
2022/07/12 06:34:58;;;;;;;6.03;2.20;;;20.70;30.00;;;;;;5029778;28;47009;-65
2022/07/12 06:37:24;;;;;;;3.97;2.37;;;20.60;29.90;;;;;;5029551;28;46458;-64
2022/07/12 06:39:50;;;;;;;3.90;2.63;;;20.70;29.50;;;;;;5031388;28;46391;-66
2022/07/12 06:42:16;;;;;;;6.20;2.20;;;20.70;29.10;;;;;;5035596;28;46417;-65
2022/07/12 06:44:41;;;;;;;3.80;2.13;;;20.80;28.90;;;;;;5031990;28;46415;-66
2022/07/12 06:47:07;;;;;;;4.40;2.17;;;20.80;28.90;;;;;;5031319;28;46463;-65
2022/07/12 06:49:33;;;;;;;3.80;1.73;;;21.00;28.50;;;;;;5030578;28;46929;-65
2022/07/12 06:51:58;;;;;;;2.50;1.70;;;21.20;28.10;;;;;;5029787;28;45840;-65
2022/07/12 06:54:25;;;;;;;5.33;2.10;;;21.30;28.00;;;;;;5033002;28;46736;-66
2022/07/12 06:56:50;;;;;;;4.27;2.03;;;21.50;27.60;;;;;;5029500;28;46572;-63
2022/07/12 06:59:16;;;;;;;2.93;1.70;;;21.40;27.60;;;;;;5030241;28;46683;-64
2022/07/12 07:01:43;;;;;;;2.77;1.53;;;21.20;27.90;;;;;;5029855;28;46579;-65
2022/07/12 07:04:08;;;;;;;6.80;1.60;;;21.40;27.90;;;;;;5028716;28;46485;-65
2022/07/12 07:06:34;;;;;;;4.00;1.93;;;21.50;27.40;;;;;;5030885;28;46426;-65
2022/07/12 07:08:59;;;;;;;3.93;2.07;;;21.50;27.70;;;;;;5027352;28;47082;-65
2022/07/12 07:11:26;;;;;;;10.63;2.37;;;21.60;27.50;;;;;;5032049;28;46400;-65
2022/07/12 07:13:51;;;;;;;4.43;2.20;;;21.80;27.10;;;;;;5027218;28;46398;-64
2022/07/12 07:16:19;;;;;;;6.60;2.80;;;21.90;27.10;;;;;;5031710;28;46359;-65
2022/07/12 07:18:45;;;;;;;4.10;2.23;;;21.90;27.00;;;;;;5031059;28;46329;-65
2022/07/12 07:21:11;;;;;;;3.50;2.30;;;21.80;27.10;;;;;;5032740;28;46351;-66
2022/07/12 07:23:37;;;;;;;3.30;2.17;;;21.80;27.20;;;;;;5032393;28;46573;-66
2022/07/12 07:26:02;;;;;;;6.30;2.07;;;21.90;26.90;;;;;;5028714;28;46635;-65
2022/07/12 07:28:28;;;;;;;7.97;2.07;;;22.00;26.90;;;;;;5029815;28;46753;-65
2022/07/12 07:30:54;;;;;;;3.40;2.00;;;22.20;26.70;;;;;;5032559;28;46572;-65
2022/07/12 07:33:24;;;;;;;2.93;1.83;;;22.30;26.60;;;;;;5030970;28;46392;-66
2022/07/12 07:35:51;;;;;;;3.27;1.90;;;22.60;26.40;;;;;;5032250;28;46396;-64
2022/07/12 07:38:18;;;;;;;3.90;1.87;;;22.90;26.00;;;;;;5034203;28;46483;-66
2022/07/12 07:40:44;;;;;;;4.50;2.00;;;23.10;25.60;;;;;;5032451;28;46470;-64
2022/07/12 07:43:10;;;;;;;4.53;1.70;;;23.10;25.40;;;;;;5035874;28;46308;-66
2022/07/12 07:45:36;;;;;;;5.83;2.40;;;23.20;25.00;;;;;;5032352;28;46836;-64
2022/07/12 07:48:02;;;;;;;4.10;2.00;;;23.20;25.20;;;;;;5031707;28;46422;-63
2022/07/12 07:50:28;;;;;;;4.80;2.50;;;22.80;25.80;;;;;;5031975;28;46324;-63
2022/07/12 07:52:53;;;;;;;2.60;1.60;;;22.70;25.90;;;;;;5028311;28;46473;-63
2022/07/12 07:55:19;;;;;;;3.80;2.17;;;22.70;25.90;;;;;;5030843;28;46394;-64
2022/07/12 07:57:46;;;;;;;6.57;2.30;;;22.90;25.70;;;;;;5031087;28;47057;-64
2022/07/12 08:00:13;;;;;;;6.07;2.50;;;22.90;25.60;;;;;;5029336;28;46469;-64
2022/07/12 08:02:40;;;;;;;10.20;3.90;;;22.60;26.00;;;;;;5033583;28;46364;-63
2022/07/12 08:05:06;;;;;;;15.83;4.40;;;22.60;26.00;;;;;;5025676;28;45933;-63
2022/07/12 08:07:32;;;;;;;4.90;2.63;;;22.60;26.40;;;;;;5031322;28;47615;-65
2022/07/12 08:09:57;;;;;;;3.17;1.90;;;22.90;26.00;;;;;;5032492;28;46253;-63
2022/07/12 08:12:23;;;;;;;5.30;2.47;;;23.10;25.00;;;;;;5036415;28;46307;-64
2022/07/12 08:14:49;;;;;;;19.80;4.63;;;23.20;24.70;;;;;;5032532;28;46310;-64
2022/07/12 08:17:16;;;;;;;3.70;1.80;;;23.20;24.70;;;;;;5033379;28;46064;-65
2022/07/12 08:19:42;;;;;;;4.67;2.13;;;23.80;24.70;;;;;;5030118;28;46568;-65
2022/07/12 08:22:09;;;;;;;5.30;2.27;;;24.20;23.20;;;;;;5032598;28;46434;-63
2022/07/12 08:24:35;;;;;;;4.70;1.80;;;24.00;23.60;;;;;;5030358;28;46487;-62
2022/07/12 08:27:01;;;;;;;3.37;2.13;;;24.00;23.10;;;;;;5033750;28;46423;-64
2022/07/12 08:29:26;;;;;;;4.40;2.33;;;24.00;22.50;;;;;;5031695;28;46420;-63
2022/07/12 08:31:52;;;;;;;3.43;1.80;;;23.80;22.60;;;;;;5034192;28;46371;-63
2022/07/12 08:34:18;;;;;;;2.97;1.73;;;24.00;21.90;;;;;;5030468;28;46697;-63
2022/07/12 08:36:43;;;;;;;7.20;2.00;;;24.10;22.10;;;;;;5033138;28;46452;-62
2022/07/12 08:39:09;;;;;;;4.30;2.50;;;23.80;22.50;;;;;;5031535;28;45827;-63
2022/07/12 08:41:35;;;;;;;3.60;2.20;;;23.40;22.90;;;;;;5030632;28;46493;-63
2022/07/12 08:44:01;;;;;;;4.00;2.30;;;23.30;23.50;;;;;;5035777;28;46372;-63
2022/07/12 08:46:27;;;;;;;5.10;2.20;;;23.40;23.20;;;;;;5031541;28;47297;-62
2022/07/12 08:48:53;;;;;;;3.33;1.90;;;23.50;23.00;;;;;;5029206;28;46316;-63
2022/07/12 08:51:21;;;;;;;4.30;2.50;;;23.50;22.90;;;;;;5031243;28;45885;-64
2022/07/12 08:53:49;;;;;;;4.60;2.50;;;23.50;23.10;;;;;;5031814;28;46164;-63
2022/07/12 08:56:35;;;;;;;3.60;2.40;;;23.40;23.10;;;;;;5032350;28;46767;-63
2022/07/12 08:59:14;;;;;;;4.03;2.40;;;23.20;24.30;;;;;;5028196;28;46707;-63
2022/07/12 09:01:59;;;;;;;4.00;2.30;;;22.90;22.70;;;;;;5037578;28;46404;-64
2022/07/12 09:04:29;;;;;;;5.23;2.00;;;22.90;23.00;;;;;;5029381;28;46156;-63
2022/07/12 09:06:55;;;;;;;4.63;2.07;;;23.30;22.30;;;;;;5038752;28;47223;-61
2022/07/12 09:09:32;;;;;;;6.37;2.20;;;23.70;21.60;;;;;;5031992;28;47012;-62
2022/07/12 09:11:59;;;;;;;5.10;2.00;;;23.70;20.90;;;;;;5038933;28;46450;-62
2022/07/12 09:14:26;;;;;;;3.13;2.00;;;23.80;20.20;;;;;;5040142;28;46464;-63
2022/07/12 09:17:09;;;;;;;6.00;2.10;;;24.00;20.20;;;;;;5039273;28;46704;-64
2022/07/12 09:19:36;;;;;;;3.10;1.80;;;23.70;19.60;;;;;;5039263;28;46422;-64
2022/07/12 09:22:03;;;;;;;5.13;1.60;;;23.90;20.00;;;;;;5051700;28;46636;-63
2022/07/12 09:24:29;;;;;;;2.93;1.60;;;24.40;19.70;;;;;;5037074;28;45886;-63
2022/07/12 09:27:02;;;;;;;3.80;1.93;;;24.70;19.10;;;;;;5039112;28;46540;-63
2022/07/12 09:29:29;;;;;;;5.00;1.53;;;24.80;18.80;;;;;;5036088;28;46384;-65
2022/07/12 09:37:38;;;;;;;5.37;2.10;;;24.80;17.80;;;;;;5033715;28;46843;-63
2022/07/12 09:40:06;;;;;;;2.57;1.60;;;24.20;18.80;;;;;;5032198;28;46518;-63
2022/07/12 09:42:33;;;;;;;4.33;1.67;;;24.00;19.50;;;;;;5034651;28;46325;-63
2022/07/12 09:45:00;;;;;;;4.30;1.70;;;23.80;19.70;;;;;;5032833;28;46620;-64
2022/07/12 09:47:27;;;;;;;3.63;1.87;;;23.80;19.70;;;;;;5036249;28;48157;-63
2022/07/12 09:49:53;;;;;;;2.97;1.70;;;23.70;20.00;;;;;;5033804;28;46417;-63
2022/07/12 09:52:21;;;;;;;5.23;1.70;;;23.60;20.30;;;;;;5035263;28;46585;-63
2022/07/12 09:54:50;;;;;;;3.00;1.60;;;23.70;20.30;;;;;;5032427;28;46596;-63
2022/07/12 09:57:30;;;;;;;2.60;1.57;;;24.00;19.60;;;;;;5033401;28;46457;-62
2022/07/12 09:59:58;;;;;;;4.23;2.00;;;23.90;19.20;;;;;;5032838;28;46475;-63
2022/07/12 10:02:24;;;;;;;4.73;1.70;;;24.00;18.90;;;;;;5033997;28;46503;-63
2022/07/12 10:04:51;;;;;;;3.33;1.37;;;24.20;18.80;;;;;;5034065;28;46574;-63
2022/07/12 10:07:17;;;;;;;3.13;1.40;;;24.60;18.30;;;;;;5031581;28;48020;-64
2022/07/12 10:09:44;;;;;;;4.90;1.50;;;24.60;18.30;;;;;;5031025;28;46750;-63
2022/07/12 10:12:11;;;;;;;2.83;1.40;;;24.60;18.40;;;;;;5033421;28;46630;-63
2022/07/12 10:14:38;;;;;;;6.57;1.50;;;24.60;18.60;;;;;;5035441;28;46796;-63
2022/07/12 10:17:09;;;;;;;3.73;1.40;;;24.60;18.80;;;;;;5030882;28;46378;-63
2022/07/12 10:19:36;;;;;;;2.53;1.40;;;24.20;18.80;;;;;;5032470;28;46617;-62
2022/07/12 10:22:04;;;;;;;4.10;1.60;;;24.40;19.00;;;;;;5028023;28;46261;-63
2022/07/12 10:24:32;;;;;;;2.50;1.57;;;24.20;19.10;;;;;;5032239;28;46358;-63
2022/07/12 10:26:59;;;;;;;2.93;1.90;;;24.40;19.00;;;;;;5027267;28;46573;-63
2022/07/12 10:29:25;;;;;;;2.53;1.40;;;24.80;18.70;;;;;;5033093;28;46438;-62
2022/07/12 10:31:52;;;;;;;3.43;1.60;;;24.60;18.50;;;;;;5035670;28;46292;-63
2022/07/12 10:34:23;;;;;;;2.30;1.60;;;24.30;18.50;;;;;;5030716;28;46954;-63
2022/07/12 10:36:54;;;;;;;2.83;1.70;;;24.20;18.70;;;;;;5031874;28;46598;-64
2022/07/12 10:39:24;;;;;;;2.60;1.47;;;23.80;19.10;;;;;;5030662;28;46801;-64
2022/07/12 10:42:05;;;;;;;2.87;1.70;;;23.80;19.30;;;;;;5030085;28;45953;-64
2022/07/12 10:44:49;;;;;;;2.70;1.40;;;23.80;19.10;;;;;;5030794;28;46426;-64
2022/07/12 10:47:16;;;;;;;2.33;1.40;;;24.00;19.30;;;;;;5031121;28;46406;-63
2022/07/12 10:49:59;;;;;;;6.77;1.53;;;23.90;19.10;;;;;;5031422;28;46383;-64
2022/07/12 10:52:26;;;;;;;3.37;1.60;;;24.20;18.80;;;;;;5032411;28;46785;-63
2022/07/12 10:54:54;;;;;;;3.57;1.50;;;24.70;18.50;;;;;;5030704;28;46363;-63
2022/07/12 10:57:43;;;;;;;2.53;1.33;;;24.90;18.00;;;;;;5028863;28;47065;-64
2022/07/12 11:00:10;;;;;;;3.57;1.70;;;25.00;17.40;;;;;;5029842;28;46390;-65
2022/07/12 11:02:36;;;;;;;2.63;1.50;;;25.10;17.30;;;;;;5031569;28;46366;-65
2022/07/12 11:05:02;;;;;;;4.00;1.70;;;25.70;16.80;;;;;;5030488;28;46434;-63
2022/07/12 11:07:29;;;;;;;4.03;1.37;;;26.10;16.60;;;;;;5029899;28;46488;-63
2022/07/12 11:09:55;;;;;;;2.87;1.63;;;26.20;16.00;;;;;;5028916;28;46176;-64
2022/07/12 11:12:28;;;;;;;2.80;1.43;;;25.30;16.30;;;;;;5030095;28;46319;-63
2022/07/12 11:14:54;;;;;;;5.87;1.93;;;24.60;17.10;;;;;;5030936;28;46698;-64
2022/07/12 11:17:30;;;;;;;2.50;1.50;;;24.60;17.90;;;;;;5032441;28;46434;-63
2022/07/12 11:20:10;;;;;;;4.90;1.60;;;24.60;17.90;;;;;;5028199;28;45740;-63
2022/07/12 11:22:37;;;;;;;6.97;1.50;;;24.80;17.50;;;;;;5027086;28;46660;-63
2022/07/12 11:25:05;;;;;;;4.30;1.40;;;25.20;17.30;;;;;;5031252;28;46426;-63
2022/07/12 11:27:31;;;;;;;2.63;1.40;;;25.20;15.90;;;;;;5027022;28;46201;-63
2022/07/12 11:29:59;;;;;;;2.30;1.40;;;25.40;15.50;;;;;;5031100;28;46525;-63
2022/07/12 11:32:40;;;;;;;2.57;1.27;;;25.40;15.30;;;;;;5029463;28;46392;-63
2022/07/12 11:35:25;;;;;;;2.40;1.40;;;25.10;15.80;;;;;;5034524;28;46726;-64
2022/07/12 11:37:53;;;;;;;2.60;1.40;;;24.90;16.40;;;;;;5032221;28;46575;-62
2022/07/12 11:40:30;;;;;;;4.53;1.40;;;25.10;16.60;;;;;;5031375;28;46319;-63
2022/07/12 11:43:00;;;;;;;3.50;1.37;;;25.10;15.80;;;;;;5034327;28;46418;-63
2022/07/12 11:45:28;;;;;;;3.67;1.33;;;25.20;15.70;;;;;;5026900;28;46167;-63
2022/07/12 11:47:56;;;;;;;2.50;1.40;;;25.20;15.60;;;;;;5030332;28;46441;-63
2022/07/12 11:50:22;;;;;;;2.70;1.57;;;25.10;15.80;;;;;;5028026;28;46450;-63
2022/07/12 11:52:47;;;;;;;2.57;1.20;;;25.20;15.80;;;;;;5038384;28;46391;-63
2022/07/12 11:55:13;;;;;;;2.33;1.40;;;25.50;15.70;;;;;;5029858;28;46824;-63
2022/07/12 11:57:39;;;;;;;3.40;1.27;;;25.70;15.80;;;;;;5029419;28;46387;-64
2022/07/12 12:00:17;;;;;;;3.10;1.30;;;25.80;15.30;;;;;;5034483;28;46432;-64
2022/07/12 12:02:43;;;;;;;2.50;1.20;;;25.50;15.10;;;;;;5030143;28;46342;-64
2022/07/12 12:05:09;;;;;;;2.07;1.03;;;25.40;15.40;;;;;;5047613;28;46707;-64
2022/07/12 12:07:35;;;;;;;2.87;1.47;;;25.50;15.30;;;;;;5047377;22;46169;-63
2022/07/12 12:10:13;;;;;;;2.20;1.30;;;25.60;15.60;;;;;;5039047;28;46382;-62
2022/07/12 12:12:53;;;;;;;2.63;1.23;;;25.90;15.30;;;;;;5040823;28;46482;-63
2022/07/12 12:15:23;;;;;;;2.37;1.20;;;25.80;14.40;;;;;;5041996;28;46471;-64
2022/07/12 12:17:59;;;;;;;2.87;1.23;;;25.50;15.10;;;;;;5038854;28;47169;-63
2022/07/12 12:20:28;;;;;;;2.27;1.00;;;25.30;15.00;;;;;;5038331;28;46626;-64
2022/07/12 12:22:57;;;;;;;2.40;1.20;;;25.40;14.80;;;;;;5034666;28;46343;-62
2022/07/12 12:25:24;;;;;;;3.60;1.10;;;25.30;15.00;;;;;;5038196;28;46489;-62
2022/07/12 12:27:57;;;;;;;3.10;1.20;;;25.50;15.10;;;;;;5037852;28;47318;-63
2022/07/12 12:30:24;;;;;;;2.47;1.20;;;25.80;15.30;;;;;;5039523;28;46413;-63
2022/07/12 12:32:55;;;;;;;2.30;1.00;;;25.80;14.90;;;;;;5040143;28;46449;-63
2022/07/12 12:35:35;;;;;;;1.93;1.00;;;25.80;15.20;;;;;;5035656;28;46444;-63
2022/07/12 12:38:02;;;;;;;4.27;1.10;;;26.10;14.60;;;;;;5034370;28;46159;-63
2022/07/12 12:40:30;;;;;;;2.33;1.10;;;26.30;14.40;;;;;;5037235;28;46460;-63
2022/07/12 12:43:08;;;;;;;3.07;1.27;;;25.80;14.00;;;;;;5034356;28;46466;-64
2022/07/12 12:45:35;;;;;;;3.33;1.03;;;25.40;15.10;;;;;;5034772;28;46516;-63
2022/07/12 12:48:02;;;;;;;3.40;0.97;;;25.10;14.90;;;;;;5035760;28;46287;-64
2022/07/12 12:50:41;;;;;;;4.77;1.57;;;24.60;14.90;;;;;;5036005;28;46362;-64
2022/07/12 12:53:23;;;;;;;4.00;1.20;;;24.50;15.10;;;;;;5036353;28;46480;-63
2022/07/12 12:55:51;;;;;;;2.27;1.03;;;24.40;16.00;;;;;;5036228;28;46514;-64